createdAt,value
2023-02-14T00:00:38.982Z,21.23
2023-02-14T00:03:05.399Z,23.48
2023-02-14T00:05:31.769Z,29.27
2023-02-14T00:07:58.093Z,27.27
2023-02-14T00:10:24.458Z,24.83
2023-02-14T00:12:50.865Z,26.27
2023-02-14T00:15:22.930Z,25.95
2023-02-14T00:17:54.653Z,20.90
2023-02-14T00:20:24.074Z,22.75
2023-02-14T00:22:50.846Z,26.98
2023-02-14T00:25:18.181Z,25.43
2023-02-14T00:27:44.699Z,24.80
2023-02-14T00:30:12.807Z,25.52
2023-02-14T00:32:40.813Z,28.35
2023-02-14T00:35:08.782Z,26.88
2023-02-14T00:37:35.408Z,25.77
2023-02-14T00:40:02.162Z,31.13
2023-02-14T00:42:28.595Z,29.90
2023-02-14T00:44:54.957Z,24.98
2023-02-14T00:47:21.390Z,27.67
2023-02-14T00:49:47.741Z,28.93
2023-02-14T00:52:14.142Z,35.50
2023-02-14T00:54:40.525Z,28.90
2023-02-14T00:57:06.970Z,27.27
2023-02-14T00:59:33.350Z,31.67
2023-02-14T01:01:59.724Z,28.77
2023-02-14T01:04:26.192Z,29.30
2023-02-14T01:06:52.678Z,38.08
2023-02-14T01:09:19.061Z,27.15
2023-02-14T01:11:45.466Z,25.15
2023-02-14T01:14:11.934Z,25.07
2023-02-14T01:16:38.872Z,29.33
2023-02-14T01:19:05.358Z,28.33
2023-02-14T01:21:33.582Z,29.05
2023-02-14T01:24:03.216Z,28.67
2023-02-14T01:26:30.331Z,25.60
2023-02-14T01:28:57.053Z,29.52
2023-02-14T01:31:29.459Z,25.38
2023-02-14T01:33:57.114Z,28.52
2023-02-14T01:36:28.709Z,24.98
2023-02-14T01:38:58.429Z,26.93
2023-02-14T01:41:27.589Z,24.88
2023-02-14T01:43:58.949Z,28.70
2023-02-14T01:46:27.968Z,28.17
2023-02-14T01:48:58.779Z,34.42
2023-02-14T01:51:25.264Z,40.43
2023-02-14T01:53:53.046Z,33.10
2023-02-14T01:56:29.877Z,30.33
2023-02-14T01:59:00.277Z,42.08
2023-02-14T02:01:29.592Z,34.60
2023-02-14T02:04:00.142Z,30.27
2023-02-14T02:06:31.779Z,30.52
2023-02-14T02:09:06.949Z,33.13
2023-02-14T02:11:34.209Z,30.40
2023-02-14T02:14:00.639Z,49.50
2023-02-14T02:17:14.851Z,35.70
2023-02-14T02:20:03.331Z,43.05
2023-02-14T02:22:35.495Z,35.70
2023-02-14T02:25:10.848Z,64.25
2023-02-14T02:28:02.111Z,47.40
2023-02-14T02:31:05.818Z,36.80
2023-02-14T02:33:51.166Z,48.65
2023-02-14T02:36:32.797Z,33.35
2023-02-14T02:39:22.458Z,40.70
2023-02-14T02:41:59.323Z,57.75
2023-02-14T02:44:41.336Z,44.20
2023-02-14T02:47:16.622Z,59.35
2023-02-14T02:50:12.933Z,50.95
2023-02-14T02:53:03.500Z,45.33
2023-02-14T02:56:00.980Z,43.17
2023-02-14T02:58:36.809Z,29.53
2023-02-14T03:01:09.832Z,62.17
2023-02-14T03:03:58.628Z,39.35
2023-02-14T03:06:25.227Z,39.65
2023-02-14T03:08:51.628Z,25.30
2023-02-14T03:11:18.446Z,26.67
2023-02-14T03:14:08.658Z,40.58
2023-02-14T03:16:38.460Z,57.40
2023-02-14T03:19:26.778Z,29.48
2023-02-14T03:22:13.422Z,39.50
2023-02-14T03:24:42.406Z,58.57
2023-02-14T03:27:35.322Z,37.45
2023-02-14T03:30:20.009Z,58.17
2023-02-14T03:32:58.622Z,40.78
2023-02-14T03:35:29.150Z,48.92
2023-02-14T03:38:07.610Z,42.30
2023-02-14T03:40:58.169Z,47.88
2023-02-14T03:43:33.901Z,34.25
2023-02-14T03:46:25.729Z,29.20
2023-02-14T03:48:54.900Z,46.38
2023-02-14T03:51:23.468Z,22.97
2023-02-14T03:53:54.546Z,36.97
2023-02-14T03:56:43.306Z,45.80
2023-02-14T03:59:20.351Z,31.70
2023-02-14T04:02:13.890Z,26.27
2023-02-14T04:04:44.284Z,52.60
2023-02-14T04:07:12.354Z,38.88
2023-02-14T04:09:38.943Z,32.13
2023-02-14T04:12:05.502Z,33.40
2023-02-14T04:14:32.009Z,41.63
2023-02-14T04:17:17.015Z,58.63
2023-02-14T04:19:43.436Z,43.50
2023-02-14T04:22:09.791Z,36.28
2023-02-14T04:24:36.242Z,25.23
2023-02-14T04:27:11.688Z,27.67
2023-02-14T04:29:44.099Z,26.90
2023-02-14T04:32:13.539Z,41.33
2023-02-14T04:34:40.294Z,37.22
2023-02-14T04:37:07.723Z,31.38
2023-02-14T04:39:34.159Z,23.27
2023-02-14T04:42:00.666Z,33.00
2023-02-14T04:44:27.421Z,24.60
2023-02-14T04:46:53.871Z,42.33
2023-02-14T04:49:20.285Z,29.15
2023-02-14T04:51:47.274Z,25.27
2023-02-14T04:54:13.802Z,30.67
2023-02-14T04:56:40.245Z,37.65
2023-02-14T04:59:06.720Z,41.28
2023-02-14T05:01:33.110Z,21.13
2023-02-14T05:03:59.616Z,32.13
2023-02-14T05:06:26.042Z,37.27
2023-02-14T05:08:52.759Z,21.08
2023-02-14T05:11:19.215Z,25.33
2023-02-14T05:13:45.681Z,26.40
2023-02-14T05:16:12.144Z,21.13
2023-02-14T05:18:38.651Z,20.83
2023-02-14T05:21:05.373Z,22.73
2023-02-14T05:23:31.791Z,22.83
2023-02-14T05:25:58.517Z,20.75
2023-02-14T05:28:25.109Z,20.75
2023-02-14T05:30:52.490Z,20.03
2023-02-14T05:33:19.173Z,19.05
2023-02-14T05:35:45.690Z,17.85
2023-02-14T05:38:13.155Z,22.40
2023-02-14T05:40:40.491Z,16.70
2023-02-14T05:43:07.307Z,18.27
2023-02-14T05:45:33.897Z,21.88
2023-02-14T05:48:00.670Z,19.02
2023-02-14T05:50:27.191Z,18.40
2023-02-14T05:52:53.864Z,19.00
2023-02-14T05:55:20.388Z,17.60
2023-02-14T05:57:47.014Z,20.17
2023-02-14T06:00:14.381Z,22.38
2023-02-14T06:02:40.989Z,16.70
2023-02-14T06:05:07.999Z,21.48
2023-02-14T06:07:34.401Z,20.40
2023-02-14T06:10:00.853Z,18.15
2023-02-14T06:12:27.379Z,19.75
2023-02-14T06:14:53.806Z,22.20
2023-02-14T06:17:20.200Z,20.70
2023-02-14T06:19:46.602Z,21.37
2023-02-14T06:22:13.048Z,21.30
2023-02-14T06:24:39.437Z,20.77
2023-02-14T06:27:05.891Z,17.70
2023-02-14T06:29:32.282Z,19.70
2023-02-14T06:32:05.716Z,18.53
2023-02-14T06:34:35.565Z,16.85
2023-02-14T06:37:02.009Z,19.17
2023-02-14T06:39:28.400Z,19.63
2023-02-14T06:41:54.752Z,18.33
2023-02-14T06:44:21.158Z,21.33
2023-02-14T06:46:47.569Z,17.67
2023-02-14T06:49:14.263Z,22.15
2023-02-14T06:51:40.802Z,23.23
2023-02-14T06:54:07.390Z,23.90
2023-02-14T06:56:33.751Z,21.33
2023-02-14T06:59:00.187Z,24.88
2023-02-14T07:01:26.610Z,24.02
2023-02-14T07:03:53.086Z,19.42
2023-02-14T07:06:19.684Z,23.50
2023-02-14T07:08:46.091Z,26.20
2023-02-14T07:11:12.604Z,22.60
2023-02-14T07:13:39.056Z,24.20
2023-02-14T07:16:05.715Z,28.63
2023-02-14T07:18:32.335Z,25.75
2023-02-14T07:20:59.067Z,19.63
2023-02-14T07:23:25.638Z,24.38
2023-02-14T07:25:52.050Z,25.80
2023-02-14T07:28:18.630Z,23.17
2023-02-14T07:30:45.033Z,23.23
2023-02-14T07:33:12.242Z,29.10
2023-02-14T07:35:38.779Z,29.98
2023-02-14T07:38:05.353Z,43.15
2023-02-14T07:40:31.959Z,23.00
2023-02-14T07:42:58.980Z,22.00
2023-02-14T07:45:25.927Z,22.50
2023-02-14T07:47:54.711Z,27.80
2023-02-14T07:50:22.610Z,25.70
2023-02-14T07:52:49.580Z,37.80
2023-02-14T07:55:16.401Z,28.13
2023-02-14T07:57:42.918Z,36.10
2023-02-14T08:00:09.825Z,33.15
2023-02-14T08:02:36.273Z,29.60
2023-02-14T08:05:02.785Z,33.42
2023-02-14T08:07:29.258Z,28.70
2023-02-14T08:09:55.616Z,24.87
2023-02-14T08:12:40.512Z,26.27
2023-02-14T08:15:25.748Z,29.42
2023-02-14T08:17:52.326Z,29.77
2023-02-14T08:20:18.886Z,26.27
2023-02-14T08:22:45.314Z,33.07
2023-02-14T08:25:11.728Z,32.08
2023-02-14T08:27:38.134Z,30.83
2023-02-14T08:30:04.735Z,28.23
2023-02-14T08:32:31.461Z,32.20
2023-02-14T08:34:57.973Z,29.60
2023-02-14T08:37:24.325Z,26.65
2023-02-14T08:39:50.764Z,34.33
2023-02-14T08:42:17.232Z,25.27
2023-02-14T08:44:43.601Z,28.52
2023-02-14T08:47:10.034Z,23.23
2023-02-14T08:49:36.555Z,28.45
2023-02-14T08:52:03.031Z,26.27
2023-02-14T08:54:29.478Z,25.92
2023-02-14T08:56:56.134Z,26.38
2023-02-14T08:59:22.804Z,24.73
2023-02-14T09:01:49.182Z,29.77
2023-02-14T09:04:15.616Z,24.13
2023-02-14T09:06:42.120Z,32.28
2023-02-14T09:09:08.611Z,31.10
2023-02-14T09:11:35.125Z,34.23
2023-02-14T09:14:01.716Z,32.42
2023-02-14T09:16:28.261Z,32.78
2023-02-14T09:18:54.972Z,33.15
2023-02-14T09:21:25.114Z,33.83
2023-02-14T09:23:52.350Z,33.33
2023-02-14T09:26:19.577Z,30.40
2023-02-14T09:28:46.448Z,32.65
2023-02-14T09:31:13.025Z,31.23
2023-02-14T09:33:40.123Z,32.08
2023-02-14T09:36:25.787Z,33.90
2023-02-14T09:38:52.193Z,30.13
2023-02-14T09:41:30.804Z,30.88
2023-02-14T09:44:06.422Z,32.90
2023-02-14T09:46:42.665Z,32.65
2023-02-14T09:49:15.511Z,31.40
2023-02-14T09:51:49.134Z,30.33
2023-02-14T09:54:22.833Z,26.60
2023-02-14T09:57:43.244Z,32.78
2023-02-14T10:00:23.142Z,29.27
2023-02-14T10:02:56.404Z,28.27
2023-02-14T10:05:27.412Z,29.67
2023-02-14T10:07:53.764Z,30.45
2023-02-14T10:10:36.654Z,28.40
2023-02-14T10:13:22.337Z,29.75
2023-02-14T10:15:58.816Z,29.60
2023-02-14T10:18:30.623Z,30.88
2023-02-14T10:21:00.137Z,28.00
2023-02-14T10:23:37.936Z,29.10
2023-02-14T10:26:10.814Z,27.45
2023-02-14T10:28:49.377Z,28.83
2023-02-14T10:31:19.684Z,27.55
2023-02-14T10:33:59.298Z,25.15
2023-02-14T10:36:47.867Z,28.05
2023-02-14T10:39:57.121Z,27.02
2023-02-14T10:42:45.746Z,25.63
2023-02-14T10:45:22.914Z,26.27
2023-02-14T10:48:08.287Z,25.73
2023-02-14T10:50:50.178Z,26.80
2023-02-14T10:53:22.923Z,24.83
2023-02-14T10:55:57.029Z,25.13
2023-02-14T10:58:26.617Z,24.45
2023-02-14T11:01:17.306Z,25.15
2023-02-14T11:03:58.371Z,23.38
2023-02-14T11:06:24.798Z,24.90
2023-02-14T11:08:51.225Z,22.63
2023-02-14T11:11:40.049Z,22.08
2023-02-14T11:16:51.534Z,23.02
2023-02-14T11:19:26.967Z,23.85
2023-02-14T11:21:56.003Z,24.60
2023-02-14T11:24:35.934Z,27.65
2023-02-14T11:27:07.365Z,25.05
2023-02-14T11:29:43.655Z,27.75
2023-02-14T11:32:14.399Z,27.45
2023-02-14T11:34:45.186Z,26.10
2023-02-14T11:37:23.449Z,27.55
2023-02-14T11:39:51.109Z,26.63
2023-02-14T11:42:32.541Z,24.20
2023-02-14T11:44:59.577Z,28.70
2023-02-14T11:47:31.100Z,28.47
2023-02-14T11:50:01.339Z,28.10
2023-02-14T11:52:30.280Z,24.50
2023-02-14T11:54:58.010Z,28.48
2023-02-14T11:57:33.473Z,24.02
2023-02-14T12:00:04.684Z,25.60
2023-02-14T12:02:37.836Z,26.08
2023-02-14T12:05:07.340Z,22.08
2023-02-14T12:07:37.727Z,23.35
2023-02-14T12:10:18.564Z,26.70
2023-02-14T12:13:18.710Z,23.03
2023-02-14T12:15:55.958Z,21.63
2023-02-14T12:18:25.306Z,23.98
2023-02-14T12:20:54.664Z,23.20
2023-02-14T12:23:42.155Z,21.70
2023-02-14T12:26:36.233Z,24.07
2023-02-14T12:29:14.713Z,20.35
2023-02-14T12:31:47.991Z,22.48
2023-02-14T12:34:17.492Z,24.85
2023-02-14T12:36:57.296Z,23.27
2023-02-14T12:39:59.491Z,23.97
2023-02-14T12:42:32.877Z,24.15
2023-02-14T12:45:43.474Z,24.55
2023-02-14T12:48:38.019Z,24.60
2023-02-14T12:51:31.583Z,21.30
2023-02-14T12:54:17.167Z,22.63
2023-02-14T12:57:02.953Z,23.95
2023-02-14T13:00:14.924Z,21.55
2023-02-14T13:02:50.520Z,24.42
2023-02-14T13:05:21.699Z,23.55
2023-02-14T13:08:06.110Z,21.83
2023-02-14T13:10:38.470Z,25.45
2023-02-14T13:13:23.135Z,22.60
2023-02-14T13:16:12.645Z,22.65
2023-02-14T13:18:41.938Z,21.52
2023-02-14T13:21:11.501Z,22.07
2023-02-14T13:23:41.348Z,22.45
2023-02-14T13:26:13.648Z,22.30
2023-02-14T13:28:49.371Z,22.73
2023-02-14T13:31:15.943Z,23.83
2023-02-14T13:33:50.256Z,22.73
2023-02-14T13:36:16.980Z,20.13
2023-02-14T13:38:56.362Z,21.33
2023-02-14T13:41:24.852Z,23.45
2023-02-14T13:44:05.416Z,21.75
2023-02-14T13:46:31.785Z,21.53
2023-02-14T13:49:24.298Z,20.08
2023-02-14T13:51:57.355Z,21.67
2023-02-14T13:54:47.313Z,21.75
2023-02-14T13:57:34.344Z,22.58
2023-02-14T14:00:19.032Z,21.73
2023-02-14T14:02:49.968Z,19.83
2023-02-14T14:05:40.417Z,21.67
2023-02-14T14:08:24.969Z,24.65
2023-02-14T14:10:57.272Z,21.67
2023-02-14T14:13:42.164Z,20.27
2023-02-14T14:16:24.153Z,21.73
2023-02-14T14:18:53.628Z,23.35
2023-02-14T14:21:29.105Z,25.27
2023-02-14T14:24:30.800Z,20.52
2023-02-14T14:26:57.143Z,20.00
2023-02-14T14:29:38.266Z,24.08
2023-02-14T14:32:10.001Z,22.80
2023-02-14T14:34:36.886Z,22.40
2023-02-14T14:37:03.299Z,21.15
2023-02-14T14:39:32.506Z,19.77
2023-02-14T14:42:08.343Z,21.05
2023-02-14T14:44:35.994Z,24.30
2023-02-14T14:47:02.545Z,20.83
2023-02-14T14:49:29.634Z,23.02
2023-02-14T14:51:57.227Z,20.33
2023-02-14T14:54:27.494Z,20.52
2023-02-14T14:56:59.195Z,20.88
2023-02-14T14:59:25.647Z,19.50
2023-02-14T15:01:54.351Z,21.92
2023-02-14T15:04:31.540Z,21.90
2023-02-14T15:07:18.162Z,19.20
2023-02-14T15:09:45.270Z,18.75
2023-02-14T15:12:33.471Z,20.95
2023-02-14T15:15:00.012Z,19.70
2023-02-14T15:17:29.429Z,19.43
2023-02-14T15:20:01.895Z,20.60
2023-02-14T15:22:36.719Z,19.60
2023-02-14T15:25:10.131Z,19.85
2023-02-14T15:27:40.521Z,16.92
2023-02-14T15:30:23.689Z,21.17
2023-02-14T15:32:52.003Z,21.40
2023-02-14T15:35:26.300Z,19.08
2023-02-14T15:37:53.522Z,21.80
2023-02-14T15:40:31.699Z,22.40
2023-02-14T15:43:13.818Z,19.27
2023-02-14T15:45:41.101Z,20.35
2023-02-14T15:48:26.929Z,20.50
2023-02-14T15:50:58.095Z,24.65
2023-02-14T15:53:36.477Z,19.90
2023-02-14T15:56:18.119Z,21.60
2023-02-14T15:58:45.207Z,17.52
2023-02-14T16:01:12.302Z,20.45
2023-02-14T16:03:43.582Z,18.95
2023-02-14T16:06:28.999Z,21.98
2023-02-14T16:08:56.231Z,22.70
2023-02-14T16:11:37.287Z,20.60
2023-02-14T16:14:27.239Z,25.27
2023-02-14T16:17:31.653Z,22.52
2023-02-14T16:19:58.600Z,21.25
2023-02-14T16:22:31.958Z,22.40
2023-02-14T16:24:59.444Z,19.38
2023-02-14T16:27:25.833Z,20.50
2023-02-14T16:29:52.406Z,21.30
2023-02-14T16:32:22.073Z,19.25
2023-02-14T16:34:49.169Z,23.37
2023-02-14T16:37:22.566Z,19.80
2023-02-14T16:39:51.147Z,20.45
2023-02-14T16:42:18.272Z,17.92
2023-02-14T16:44:45.766Z,21.00
2023-02-14T16:47:14.486Z,20.13
2023-02-14T16:49:41.191Z,22.27
2023-02-14T16:52:18.427Z,22.52
2023-02-14T16:54:45.266Z,23.17
2023-02-14T16:57:21.538Z,21.20
2023-02-14T16:59:48.034Z,22.60
2023-02-14T17:02:15.976Z,21.33
2023-02-14T17:04:42.408Z,21.00
2023-02-14T17:07:08.983Z,20.58
2023-02-14T17:09:41.293Z,19.85
2023-02-14T17:12:15.176Z,23.73
2023-02-14T17:14:46.658Z,24.27
2023-02-14T17:17:13.618Z,24.77
2023-02-14T17:19:40.101Z,25.38
2023-02-14T17:22:07.042Z,21.75
2023-02-14T17:24:33.681Z,22.70
2023-02-14T17:27:00.121Z,25.70
2023-02-14T17:29:26.578Z,21.98
2023-02-14T17:31:53.516Z,21.05
2023-02-14T17:34:20.155Z,22.17
2023-02-14T17:36:46.893Z,23.10
2023-02-14T17:39:14.716Z,23.27
2023-02-14T17:41:41.151Z,20.90
2023-02-14T17:44:07.564Z,22.17
2023-02-14T17:46:34.109Z,22.05
2023-02-14T17:49:02.695Z,23.77
2023-02-14T17:51:29.576Z,25.48
2023-02-14T17:53:58.802Z,24.33
2023-02-14T17:56:26.341Z,23.38
2023-02-14T17:58:54.978Z,27.40
2023-02-14T18:01:28.360Z,24.87
2023-02-14T18:03:55.189Z,21.55
2023-02-14T18:06:21.953Z,21.75
2023-02-14T18:08:51.748Z,20.63
2023-02-14T18:11:20.164Z,23.40
2023-02-14T18:13:47.142Z,23.03
2023-02-14T18:16:15.957Z,24.70
2023-02-14T18:18:42.697Z,21.95
2023-02-14T18:21:11.684Z,30.73
2023-02-14T18:23:38.954Z,34.53
2023-02-14T18:26:08.189Z,27.00
2023-02-14T18:28:35.218Z,24.40
2023-02-14T18:31:10.717Z,25.48
2023-02-14T18:33:38.072Z,24.75
2023-02-14T18:36:07.265Z,26.42
2023-02-14T18:38:34.938Z,24.37
2023-02-14T18:41:05.684Z,26.73
2023-02-14T18:43:32.366Z,29.98
2023-02-14T18:46:07.426Z,27.80
2023-02-14T18:48:34.529Z,27.35
2023-02-14T18:51:15.414Z,27.07
2023-02-14T18:53:44.092Z,27.00
2023-02-14T18:56:15.949Z,27.33
2023-02-14T18:58:46.064Z,24.60
2023-02-14T19:01:15.117Z,27.17
2023-02-14T19:03:41.541Z,26.23
2023-02-14T19:06:08.662Z,33.95
2023-02-14T19:08:37.620Z,31.38
2023-02-14T19:11:09.340Z,31.60
2023-02-14T19:13:35.686Z,30.23
2023-02-14T19:16:09.688Z,29.47
2023-02-14T19:18:36.132Z,34.72
2023-02-14T19:21:17.720Z,24.63
2023-02-14T19:23:44.392Z,23.35
2023-02-14T19:26:16.057Z,25.20
2023-02-14T19:28:43.392Z,24.77
2023-02-14T19:31:10.421Z,29.33
2023-02-14T19:33:42.247Z,32.20
2023-02-14T19:36:12.718Z,28.88
2023-02-14T19:38:40.079Z,27.13
2023-02-14T19:41:11.516Z,25.10
2023-02-14T19:43:39.673Z,26.05
2023-02-14T19:46:06.127Z,25.60
2023-02-14T19:48:32.520Z,26.08
2023-02-14T19:51:00.665Z,29.80
2023-02-14T19:53:27.301Z,26.90
2023-02-14T19:55:53.739Z,25.95
2023-02-14T19:58:20.226Z,26.08
2023-02-14T20:00:53.854Z,23.10
2023-02-14T20:03:20.352Z,23.50
2023-02-14T20:05:46.745Z,20.93
2023-02-14T20:08:13.136Z,25.02
2023-02-14T20:10:39.635Z,27.08
2023-02-14T20:13:06.075Z,29.85
2023-02-14T20:15:34.675Z,28.40
2023-02-14T20:18:02.221Z,28.80
2023-02-14T20:20:48.654Z,25.60
2023-02-14T20:23:15.480Z,27.27
2023-02-14T20:25:41.934Z,28.20
2023-02-14T20:28:08.290Z,28.02
2023-02-14T20:30:34.791Z,28.83
2023-02-14T20:33:01.200Z,27.92
2023-02-14T20:35:27.600Z,29.70
2023-02-14T20:37:54.979Z,27.83
2023-02-14T20:40:21.523Z,25.40
2023-02-14T20:42:49.281Z,31.00
2023-02-14T20:45:15.734Z,24.80
2023-02-14T20:47:42.117Z,25.98
2023-02-14T20:50:08.812Z,26.75
2023-02-14T20:52:38.274Z,22.70
2023-02-14T20:55:05.753Z,27.97
2023-02-14T20:57:32.083Z,26.77
2023-02-14T20:59:58.590Z,26.27
2023-02-14T21:02:24.933Z,28.13
2023-02-14T21:04:51.308Z,27.90
2023-02-14T21:07:17.628Z,30.17
2023-02-14T21:09:44.022Z,27.13
2023-02-14T21:12:10.415Z,25.05
2023-02-14T21:14:36.772Z,29.13
2023-02-14T21:17:04.405Z,26.55
2023-02-14T21:19:31.754Z,28.60
2023-02-14T21:21:58.178Z,26.13
2023-02-14T21:24:24.657Z,26.50
2023-02-14T21:26:51.111Z,25.33
2023-02-14T21:29:17.574Z,28.42
2023-02-14T21:31:44.079Z,25.23
2023-02-14T21:34:10.685Z,29.20
2023-02-14T21:36:37.164Z,28.58
2023-02-14T21:39:05.833Z,25.20
2023-02-14T21:41:32.956Z,28.48
2023-02-14T21:44:00.861Z,28.67
2023-02-14T21:46:33.323Z,29.52
2023-02-14T21:49:20.148Z,25.77
2023-02-14T21:51:47.822Z,29.38
2023-02-14T21:54:15.293Z,24.58
2023-02-14T21:56:42.347Z,28.10
2023-02-14T21:59:10.045Z,29.10
2023-02-14T22:01:38.668Z,35.30
2023-02-14T22:04:08.862Z,30.35
2023-02-14T22:06:37.322Z,24.10
2023-02-14T22:09:04.678Z,28.53
2023-02-14T22:11:31.330Z,24.88
2023-02-14T22:13:57.746Z,25.35
2023-02-14T22:16:24.726Z,24.75
2023-02-14T22:18:52.099Z,26.60
2023-02-14T22:21:22.272Z,24.20
2023-02-14T22:23:49.062Z,27.75
2023-02-14T22:26:34.579Z,24.92
2023-02-14T22:29:02.299Z,23.85
2023-02-14T22:31:34.441Z,22.75
2023-02-14T22:34:00.901Z,26.87
2023-02-14T22:36:27.369Z,25.42
2023-02-14T22:38:53.805Z,30.52
2023-02-14T22:41:23.863Z,24.80
2023-02-14T22:43:51.851Z,28.63
2023-02-14T22:46:24.100Z,29.03
2023-02-14T22:48:51.799Z,28.17
2023-02-14T22:51:22.112Z,37.00
2023-02-14T22:53:50.717Z,34.78
2023-02-14T22:56:22.678Z,27.73
2023-02-14T22:58:54.016Z,31.07
2023-02-14T23:01:21.591Z,29.77
2023-02-14T23:03:49.139Z,32.15
2023-02-14T23:06:15.799Z,32.47
2023-02-14T23:08:43.910Z,35.75
2023-02-14T23:11:13.426Z,34.03
2023-02-14T23:13:58.405Z,28.98
2023-02-14T23:16:43.702Z,26.73
2023-02-14T23:19:31.665Z,28.52
2023-02-14T23:22:05.777Z,27.80
2023-02-14T23:24:32.530Z,30.20
2023-02-14T23:26:58.985Z,28.58
2023-02-14T23:29:26.459Z,28.40
2023-02-14T23:31:52.995Z,31.27
2023-02-14T23:34:19.837Z,29.67
2023-02-14T23:36:46.870Z,31.73
2023-02-14T23:39:13.246Z,28.73
2023-02-14T23:41:49.169Z,28.67
2023-02-14T23:44:26.068Z,26.20
2023-02-14T23:46:55.386Z,32.42
2023-02-14T23:49:23.158Z,30.20
2023-02-14T23:51:51.369Z,30.40
2023-02-14T23:54:19.243Z,30.75
2023-02-14T23:56:45.825Z,29.05
2023-02-14T23:59:13.367Z,25.88
